Time;durP1;ratioP1;P1;durP2;ratioP2;P2;SDS_P1;SDS_P2;PMS_P1;PMS_P2;Temp;Humidity;BMP_temperature;BMP_pressure;BME280_temperature;BME280_humidity;BME280_pressure;Samples;Min_cycle;Max_cycle;Signal;HPM_P1;HPM_P2
2023/12/14 00:00:34;;;;;;;16.95;9.40;;;;;;;8.15;100.00;100105.00;5018485;28;20032;-68
2023/12/14 00:02:59;;;;;;;17.83;9.85;;;;;;;8.18;100.00;100115.28;5023426;28;20112;-69
2023/12/14 00:05:25;;;;;;;16.48;9.80;;;;;;;8.17;100.00;100113.56;5039681;28;20041;-68
2023/12/14 00:07:50;;;;;;;23.10;11.30;;;;;;;8.18;100.00;100120.41;5023817;28;20037;-69
2023/12/14 00:10:17;;;;;;;21.92;11.20;;;;;;;8.18;100.00;100126.44;5022524;28;20041;-71
2023/12/14 00:12:43;;;;;;;23.23;12.30;;;;;;;8.16;100.00;100127.31;5036616;28;20045;-69
2023/12/14 00:15:09;;;;;;;19.38;11.77;;;;;;;8.17;100.00;100131.56;5023446;28;20443;-69
2023/12/14 00:17:34;;;;;;;18.00;11.38;;;;;;;8.16;100.00;100132.47;5019045;28;20041;-70
2023/12/14 00:20:00;;;;;;;24.90;13.20;;;;;;;8.17;100.00;100135.00;5058473;28;20041;-69
2023/12/14 00:22:25;;;;;;;33.08;16.33;;;;;;;8.20;100.00;100134.13;5022023;28;20034;-69
2023/12/14 00:24:51;;;;;;;29.98;15.45;;;;;;;8.20;100.00;100145.28;5024040;28;20073;-69
2023/12/14 00:27:16;;;;;;;40.80;17.52;;;;;;;8.21;100.00;100141.00;5026602;28;20030;-69
2023/12/14 00:29:42;;;;;;;34.88;17.48;;;;;;;8.20;100.00;100145.28;5056692;28;20041;-69
2023/12/14 00:32:07;;;;;;;39.72;17.98;;;;;;;8.21;100.00;100147.00;5021741;28;20025;-69
2023/12/14 00:34:32;;;;;;;31.23;15.85;;;;;;;8.20;100.00;100153.00;5029813;28;20017;-69
2023/12/14 00:36:58;;;;;;;34.17;16.55;;;;;;;8.21;100.00;100153.84;5030735;28;20036;-69
2023/12/14 00:39:23;;;;;;;31.23;16.00;;;;;;;8.20;100.00;100154.72;5018268;28;20133;-71
2023/12/14 00:41:49;;;;;;;28.50;15.05;;;;;;;8.19;100.00;100160.75;5024163;28;20087;-69
2023/12/14 00:44:14;;;;;;;33.00;15.23;;;;;;;8.19;100.00;100169.31;5058482;28;20482;-69
2023/12/14 00:46:41;;;;;;;32.58;16.08;;;;;;;8.18;100.00;100167.63;5009373;28;20087;-69
2023/12/14 00:49:07;;;;;;;31.65;16.63;;;;;;;8.18;100.00;100174.47;5025567;28;20123;-70
2023/12/14 00:51:32;;;;;;;36.70;16.42;;;;;;;8.20;100.00;100176.16;5063181;28;20029;-69
2023/12/14 00:53:57;;;;;;;31.08;15.25;;;;;;;8.22;100.00;100186.47;5003084;28;20056;-69
2023/12/14 00:56:23;;;;;;;32.05;15.77;;;;;;;8.22;100.00;100189.03;5023832;28;20037;-69
2023/12/14 00:58:48;;;;;;;30.05;15.90;;;;;;;8.23;100.00;100193.31;5062661;28;20519;-70
2023/12/14 01:01:14;;;;;;;29.88;16.15;;;;;;;8.23;100.00;100191.59;5025989;28;20125;-71
2023/12/14 01:03:39;;;;;;;37.28;19.85;;;;;;;8.22;100.00;100200.16;5027469;28;20476;-69
2023/12/14 01:06:05;;;;;;;38.78;19.02;;;;;;;8.23;100.00;100208.75;5060054;28;20572;-69
2023/12/14 01:08:30;;;;;;;37.05;18.85;;;;;;;8.24;100.00;100208.75;5066409;28;20044;-70
2023/12/14 01:10:55;;;;;;;40.30;21.17;;;;;;;8.25;100.00;100209.63;5027795;28;20044;-69
2023/12/14 01:13:21;;;;;;;39.70;19.67;;;;;;;8.25;100.00;100220.75;5027934;28;20018;-69
2023/12/14 01:15:46;;;;;;;42.38;22.35;;;;;;;8.25;100.00;100219.91;5026229;28;20044;-69
2023/12/14 01:18:12;;;;;;;45.17;21.73;;;;;;;8.25;100.00;100225.88;5028255;28;20121;-69
2023/12/14 01:20:38;;;;;;;41.67;22.38;;;;;;;8.27;100.00;100234.47;5027110;28;20122;-70
2023/12/14 01:23:03;;;;;;;53.17;23.02;;;;;;;8.29;100.00;100231.88;5054020;28;20030;-70
2023/12/14 01:25:29;;;;;;;53.03;24.48;;;;;;;8.28;100.00;100240.47;5025433;28;20484;-70
2023/12/14 01:27:54;;;;;;;51.67;23.42;;;;;;;8.28;100.00;100240.47;5057753;28;20038;-70
2023/12/14 01:30:20;;;;;;;55.85;24.30;;;;;;;8.27;100.00;100249.94;5024919;28;20060;-69
2023/12/14 01:32:45;;;;;;;52.75;23.77;;;;;;;8.24;100.00;100244.81;5028675;28;20036;-70
2023/12/14 01:35:10;;;;;;;56.83;23.10;;;;;;;8.24;100.00;100264.53;5025127;28;20484;-69
2023/12/14 01:37:36;;;;;;;57.38;24.77;;;;;;;8.25;100.00;100266.25;5020869;28;20037;-69
2023/12/14 01:40:01;;;;;;;69.82;26.83;;;;;;;8.26;100.00;100261.09;5025601;28;20515;-67
2023/12/14 01:42:27;;;;;;;78.88;30.00;;;;;;;8.27;100.00;100262.81;5021677;28;20083;-67
2023/12/14 01:44:52;;;;;;;66.90;28.08;;;;;;;8.29;100.00;100262.78;5011404;28;20037;-69
2023/12/14 01:47:18;;;;;;;80.07;29.65;;;;;;;8.30;100.00;100277.38;5056813;28;20039;-70
2023/12/14 01:49:43;;;;;;;84.13;30.33;;;;;;;8.30;100.00;100285.94;5029263;28;20036;-69
2023/12/14 01:52:09;;;;;;;84.50;31.50;;;;;;;8.32;100.00;100285.94;5028110;28;20045;-70
2023/12/14 01:54:34;;;;;;;93.32;32.70;;;;;;;8.33;100.00;100293.66;5026707;28;20034;-69
2023/12/14 01:57:00;;;;;;;84.07;30.80;;;;;;;8.34;100.00;100300.50;5026814;28;20045;-70
2023/12/14 01:59:25;;;;;;;101.00;33.63;;;;;;;8.35;100.00;100301.34;5039655;28;20068;-69
2023/12/14 02:01:56;;;;;;;83.30;31.20;;;;;;;8.34;100.00;100303.06;5024194;28;20033;-70
2023/12/14 02:04:23;;;;;;;94.60;33.00;;;;;;;8.37;100.00;100310.78;5021085;28;20042;-69
2023/12/14 02:06:49;;;;;;;93.72;32.42;;;;;;;8.38;100.00;100314.22;5047779;28;20029;-70
2023/12/14 02:09:15;;;;;;;94.50;31.80;;;;;;;8.38;100.00;100321.94;5055860;28;20029;-70
2023/12/14 02:11:40;;;;;;;101.68;33.88;;;;;;;8.38;100.00;100319.38;5021963;28;20060;-70
2023/12/14 02:14:08;;;;;;;114.78;35.65;;;;;;;8.38;100.00;100322.78;5058338;28;20025;-70
2023/12/14 02:16:34;;;;;;;109.72;35.92;;;;;;;8.38;100.00;100320.22;5054396;28;20057;-68
2023/12/14 02:18:59;;;;;;;109.00;36.67;;;;;;;8.38;100.00;100327.09;5042152;28;20555;-69
2023/12/14 02:21:25;;;;;;;99.63;35.40;;;;;;;8.37;100.00;100336.53;5060601;28;20534;-69
2023/12/14 02:23:50;;;;;;;106.47;36.08;;;;;;;8.37;100.00;100338.25;5027246;28;20556;-70
2023/12/14 02:26:16;;;;;;;109.80;37.38;;;;;;;8.37;100.00;100340.81;5041093;28;20128;-70
2023/12/14 02:28:41;;;;;;;114.30;37.03;;;;;;;8.38;100.00;100342.53;5024000;28;20040;-69
2023/12/14 02:31:06;;;;;;;121.30;36.20;;;;;;;8.37;100.00;100345.97;5057316;28;20051;-69
2023/12/14 02:33:32;;;;;;;127.80;40.00;;;;;;;8.39;100.00;100354.56;5054839;28;20232;-70
2023/12/14 02:35:58;;;;;;;126.50;38.80;;;;;;;8.39;100.00;100357.13;5056137;28;20050;-70
2023/12/14 02:38:23;;;;;;;113.63;37.25;;;;;;;8.39;100.00;100355.41;5022874;28;20588;-70
2023/12/14 02:40:52;;;;;;;117.55;39.92;;;;;;;8.39;100.00;100354.56;5042568;28;20646;-70
2023/12/14 02:43:18;;;;;;;116.07;39.80;;;;;;;8.41;100.00;100363.97;5026269;28;20033;-70
2023/12/14 02:45:44;;;;;;;121.90;38.22;;;;;;;8.41;100.00;100360.53;5028815;28;20135;-69
2023/12/14 02:48:10;;;;;;;118.80;38.90;;;;;;;8.42;100.00;100367.41;5027783;28;20504;-69
2023/12/14 02:50:35;;;;;;;112.07;37.70;;;;;;;8.41;100.00;100376.00;5025863;28;20084;-69
2023/12/14 02:53:00;;;;;;;111.90;39.08;;;;;;;8.41;100.00;100381.16;5055171;28;20091;-70
2023/12/14 02:55:26;;;;;;;114.90;40.97;;;;;;;8.41;100.00;100383.72;5023234;28;20041;-70
2023/12/14 02:57:51;;;;;;;115.47;40.35;;;;;;;8.42;100.00;100390.59;5023248;28;20045;-69
2023/12/14 03:00:17;;;;;;;113.25;39.72;;;;;;;8.41;100.00;100388.88;5037567;28;20057;-70
2023/12/14 03:02:42;;;;;;;103.35;37.45;;;;;;;8.41;100.00;100394.03;5041102;28;20057;-70
2023/12/14 03:05:08;;;;;;;99.07;34.50;;;;;;;8.40;100.00;100389.72;5042352;28;20040;-70
2023/12/14 03:07:33;;;;;;;94.80;34.67;;;;;;;8.41;100.00;100394.88;5025371;28;20041;-69
2023/12/14 03:09:59;;;;;;;107.25;36.58;;;;;;;8.42;100.00;100403.47;5021411;28;20439;-70
2023/12/14 03:12:24;;;;;;;93.85;36.70;;;;;;;8.43;100.00;100402.59;5023963;28;20041;-70
2023/12/14 03:14:50;;;;;;;102.55;36.38;;;;;;;8.44;100.00;100409.47;5059810;28;20132;-70
2023/12/14 03:17:16;;;;;;;89.57;34.50;;;;;;;8.44;100.00;100409.47;5052951;28;20065;-70
2023/12/14 03:19:42;;;;;;;94.88;36.40;;;;;;;8.44;100.00;100412.91;5009722;28;20029;-70
2023/12/14 03:22:08;;;;;;;93.78;33.97;;;;;;;8.46;100.00;100410.28;5024459;28;20095;-70
2023/12/14 03:24:34;;;;;;;93.05;33.90;;;;;;;8.44;100.00;100414.63;5023990;28;20107;-70
2023/12/14 03:27:00;;;;;;;86.18;33.63;;;;;;;8.45;100.00;100422.34;5055485;28;20091;-70
2023/12/14 03:29:26;;;;;;;82.05;32.65;;;;;;;8.47;100.00;100422.31;5029701;28;20048;-70
2023/12/14 03:31:52;;;;;;;81.85;32.00;;;;;;;8.48;100.00;100429.19;5039684;28;20584;-71
2023/12/14 03:34:17;;;;;;;84.22;32.95;;;;;;;8.49;100.00;100425.75;5019847;28;20033;-69
2023/12/14 03:36:43;;;;;;;85.68;33.50;;;;;;;8.49;100.00;100436.03;5025127;28;20120;-67
2023/12/14 03:39:08;;;;;;;93.00;34.35;;;;;;;8.49;100.00;100436.03;5023615;28;20813;-67
2023/12/14 03:41:33;;;;;;;86.00;33.70;;;;;;;8.48;100.00;100442.94;5022992;28;20399;-67
2023/12/14 03:43:59;;;;;;;72.32;29.08;;;;;;;8.48;100.00;100448.09;5025860;28;20030;-67
2023/12/14 03:46:24;;;;;;;76.13;31.13;;;;;;;8.49;100.00;100454.06;5024661;28;20039;-67
2023/12/14 03:48:50;;;;;;;73.43;29.40;;;;;;;8.48;100.00;100465.25;5019033;28;20041;-66
2023/12/14 03:51:19;;;;;;;67.72;26.55;;;;;;;8.41;100.00;100466.13;5006058;28;20033;-67
2023/12/14 03:53:45;;;;;;;62.80;24.92;;;;;;;8.33;100.00;100463.59;5056396;28;20036;-67
2023/12/14 03:56:11;;;;;;;70.85;26.50;;;;;;;8.32;100.00;100473.91;5028617;28;20120;-67
2023/12/14 03:58:36;;;;;;;61.42;26.30;;;;;;;8.29;100.00;100479.06;5020231;28;20116;-67
2023/12/14 04:01:01;;;;;;;61.55;26.35;;;;;;;8.28;100.00;100487.63;5022279;28;20429;-67
2023/12/14 04:03:27;;;;;;;58.92;26.10;;;;;;;8.27;100.00;100485.94;5024336;28;20044;-67
2023/12/14 04:05:52;;;;;;;59.47;25.63;;;;;;;8.25;100.00;100491.09;5053497;28;20570;-67
2023/12/14 04:08:18;;;;;;;58.45;26.13;;;;;;;8.24;100.00;100501.41;5037657;28;20026;-67
2023/12/14 04:10:43;;;;;;;54.45;24.45;;;;;;;8.22;100.00;100508.28;5023083;28;20037;-67
2023/12/14 04:13:09;;;;;;;50.90;25.13;;;;;;;8.19;100.00;100514.28;5031664;28;20605;-67
2023/12/14 04:15:34;;;;;;;50.97;23.90;;;;;;;8.18;100.00;100511.72;5025320;28;20041;-67
2023/12/14 04:18:00;;;;;;;49.80;24.00;;;;;;;8.18;100.00;100527.16;5051316;28;20064;-67
2023/12/14 04:20:25;;;;;;;52.33;23.67;;;;;;;8.14;100.00;100523.72;5024223;28;20037;-67
2023/12/14 04:22:51;;;;;;;54.25;23.35;;;;;;;8.13;100.00;100536.63;5021845;28;20634;-67
2023/12/14 04:25:16;;;;;;;51.45;23.67;;;;;;;8.10;100.00;100534.06;5024345;28;20044;-67
2023/12/14 04:27:41;;;;;;;55.65;26.15;;;;;;;8.10;100.00;100541.78;5053956;28;20041;-66
2023/12/14 04:30:10;;;;;;;62.10;26.33;;;;;;;8.05;100.00;100553.78;5004034;28;20032;-67
2023/12/14 04:32:36;;;;;;;60.78;27.45;;;;;;;8.04;100.00;100552.09;5051898;28;20615;-67
2023/12/14 04:35:02;;;;;;;59.28;25.38;;;;;;;8.01;100.00;100556.34;5021538;28;20033;-67
2023/12/14 04:37:28;;;;;;;63.78;26.92;;;;;;;8.00;100.00;100561.53;5022043;28;20022;-67
2023/12/14 04:39:54;;;;;;;60.10;25.70;;;;;;;7.96;100.00;100570.09;5057711;28;20293;-67
2023/12/14 04:42:19;;;;;;;53.65;25.15;;;;;;;7.92;100.00;100574.38;5026387;28;20095;-69
2023/12/14 04:44:44;;;;;;;49.67;23.63;;;;;;;7.85;100.00;100582.97;5025227;28;20051;-69
2023/12/14 04:47:10;;;;;;;41.88;21.95;;;;;;;7.78;100.00;100581.25;5006511;28;20088;-69
2023/12/14 04:49:35;;;;;;;41.38;21.58;;;;;;;7.77;100.00;100581.28;5024616;28;20041;-69
2023/12/14 04:52:04;;;;;;;39.28;20.70;;;;;;;7.76;100.00;100579.53;5004197;28;20049;-69
2023/12/14 04:54:32;;;;;;;38.85;19.80;;;;;;;7.73;100.00;100582.97;5020675;28;20124;-69
2023/12/14 04:56:58;;;;;;;37.92;18.67;;;;;;;7.73;100.00;100594.97;5053078;28;20091;-69
2023/12/14 04:59:23;;;;;;;36.35;19.90;;;;;;;7.71;100.00;100594.13;5038941;28;20041;-69
2023/12/14 05:01:49;;;;;;;34.28;18.67;;;;;;;7.72;100.00;100598.41;5054233;28;20047;-69
2023/12/14 05:04:14;;;;;;;35.13;20.02;;;;;;;7.72;100.00;100609.56;5018195;28;20137;-70
2023/12/14 05:06:41;;;;;;;33.33;19.52;;;;;;;7.73;100.00;100608.72;5018293;28;20044;-70
2023/12/14 05:09:06;;;;;;;33.63;19.27;;;;;;;7.68;100.00;100615.56;5023221;28;20029;-70
2023/12/14 05:11:32;;;;;;;32.83;17.33;;;;;;;7.70;100.00;100624.13;5020181;28;20030;-69
2023/12/14 05:13:58;;;;;;;32.42;19.00;;;;;;;7.67;100.00;100631.84;5023539;28;20021;-69
2023/12/14 05:16:27;;;;;;;37.30;20.13;;;;;;;7.65;100.00;100636.16;5027632;28;20123;-69
2023/12/14 05:18:56;;;;;;;39.35;20.85;;;;;;;7.66;100.00;100644.69;5025588;28;20047;-69
2023/12/14 05:21:22;;;;;;;40.47;21.42;;;;;;;7.62;100.00;100646.44;5025223;28;20408;-69
2023/12/14 05:23:47;;;;;;;39.53;21.02;;;;;;;7.63;100.00;100649.84;5018719;28;20038;-69
2023/12/14 05:26:13;;;;;;;48.17;24.20;;;;;;;7.61;100.00;100655.00;5042079;28;20037;-69
2023/12/14 05:28:38;;;;;;;46.42;23.48;;;;;;;7.61;100.00;100648.97;5028552;28;20128;-69
2023/12/14 05:31:04;;;;;;;50.42;24.02;;;;;;;7.61;100.00;100667.84;5026564;28;20136;-70
2023/12/14 05:33:31;;;;;;;57.22;27.08;;;;;;;7.60;100.00;100660.13;5027042;28;20392;-70
2023/12/14 05:35:56;;;;;;;57.78;28.02;;;;;;;7.61;100.00;100656.69;5061680;28;20033;-70
2023/12/14 05:38:22;;;;;;;58.63;27.98;;;;;;;7.62;100.00;100666.16;5010669;28;20064;-69
2023/12/14 05:40:47;;;;;;;61.45;28.63;;;;;;;7.62;100.00;100663.56;5028638;28;20029;-68
2023/12/14 05:43:12;;;;;;;59.00;27.70;;;;;;;7.61;100.00;100670.44;5039100;28;20065;-69
2023/12/14 05:45:38;;;;;;;60.00;27.92;;;;;;;7.58;100.00;100673.00;5025302;28;20042;-70
2023/12/14 05:48:07;;;;;;;60.35;28.10;;;;;;;7.56;100.00;100679.00;5023832;28;20037;-69
2023/12/14 05:50:32;;;;;;;56.40;27.15;;;;;;;7.56;100.00;100676.41;5057873;28;20033;-69
2023/12/14 05:52:57;;;;;;;64.10;28.42;;;;;;;7.54;100.00;100681.53;5043884;28;20028;-69
2023/12/14 05:55:23;;;;;;;65.28;30.08;;;;;;;7.52;100.00;100685.84;5025305;28;20603;-70
2023/12/14 05:57:49;;;;;;;65.13;30.45;;;;;;;7.49;100.00;100688.41;5029843;28;20037;-70
2023/12/14 06:00:15;;;;;;;62.35;29.95;;;;;;;7.47;100.00;100704.69;5027337;28;20113;-70
2023/12/14 06:02:41;;;;;;;66.78;29.83;;;;;;;7.44;100.00;100710.69;5010937;28;20033;-69
2023/12/14 06:05:07;;;;;;;69.95;30.77;;;;;;;7.44;100.00;100708.09;5056994;28;20025;-69
2023/12/14 06:07:33;;;;;;;65.95;28.95;;;;;;;7.44;100.00;100710.69;5050204;28;20029;-71
2023/12/14 06:09:58;;;;;;;73.03;30.65;;;;;;;7.43;100.00;100717.53;5028701;28;20175;-68
2023/12/14 06:12:24;;;;;;;76.78;31.77;;;;;;;7.41;100.00;100723.53;5029179;28;20057;-69
2023/12/14 06:14:50;;;;;;;66.88;28.35;;;;;;;7.40;100.00;100730.38;5025880;28;20052;-69
2023/12/14 06:17:15;;;;;;;75.15;30.42;;;;;;;7.41;100.00;100738.94;5025004;28;20053;-69
2023/12/14 06:19:41;;;;;;;67.82;29.90;;;;;;;7.42;100.00;100745.78;5043544;28;20033;-69
2023/12/14 06:22:06;;;;;;;63.50;30.65;;;;;;;7.40;100.00;100744.94;4991531;28;20041;-69
2023/12/14 06:24:32;;;;;;;76.25;31.75;;;;;;;7.43;100.00;100755.25;5024988;28;20044;-69
2023/12/14 06:26:57;;;;;;;81.80;34.88;;;;;;;7.40;100.00;100753.53;5023050;28;20057;-69
2023/12/14 06:29:23;;;;;;;89.85;35.95;;;;;;;7.40;100.00;100760.38;5023619;28;20034;-69
2023/12/14 06:31:49;;;;;;;87.43;37.70;;;;;;;7.38;100.00;100774.94;5024348;28;20032;-69
2023/12/14 06:34:14;;;;;;;82.03;36.35;;;;;;;7.32;100.00;100778.34;5025831;28;20033;-69
2023/12/14 06:36:44;;;;;;;78.13;31.65;;;;;;;7.32;100.00;100785.19;5024305;28;20103;-69
2023/12/14 06:39:10;;;;;;;77.35;32.60;;;;;;;7.28;100.00;100784.31;5024682;28;20037;-69
2023/12/14 06:41:36;;;;;;;68.28;30.40;;;;;;;7.28;100.00;100797.16;5056640;28;20050;-69
2023/12/14 06:44:02;;;;;;;65.07;28.58;;;;;;;7.28;100.00;100801.44;5022863;28;20143;-69
2023/12/14 06:46:28;;;;;;;73.25;30.88;;;;;;;7.26;100.00;100808.31;5038862;28;20419;-68
2023/12/14 06:48:56;;;;;;;70.63;31.13;;;;;;;7.25;100.00;100814.28;5025706;28;20064;-69
2023/12/14 06:51:22;;;;;;;68.32;31.35;;;;;;;7.27;100.00;100823.72;5038891;28;20041;-69
2023/12/14 06:53:48;;;;;;;68.38;31.42;;;;;;;7.24;100.00;100828.00;5021539;28;20538;-67
2023/12/14 06:56:14;;;;;;;68.28;31.67;;;;;;;7.22;100.00;100833.13;5048951;28;20096;-67
2023/12/14 06:58:41;;;;;;;70.43;32.70;;;;;;;7.21;100.00;100841.66;5054362;28;20109;-67
2023/12/14 07:01:11;;;;;;;68.95;32.45;;;;;;;7.21;100.00;100845.97;5023178;28;20037;-66
2023/12/14 07:03:40;;;;;;;68.18;30.77;;;;;;;7.17;100.00;100844.22;5055994;28;20069;-66
2023/12/14 07:06:05;;;;;;;67.57;30.42;;;;;;;7.17;100.00;100852.81;5054353;28;20037;-70
2023/12/14 07:08:30;;;;;;;71.25;31.00;;;;;;;7.16;100.00;100853.66;5007249;28;20033;-70
2023/12/14 07:10:56;;;;;;;74.10;31.35;;;;;;;7.16;100.00;100861.34;5019973;28;20432;-69
2023/12/14 07:13:21;;;;;;;75.85;30.92;;;;;;;7.12;100.00;100871.59;5025834;28;20036;-69
2023/12/14 07:15:47;;;;;;;71.55;31.73;;;;;;;7.10;100.00;100871.56;5027919;28;20092;-69
2023/12/14 07:18:12;;;;;;;77.93;31.08;;;;;;;7.07;100.00;100868.97;5022611;28;20038;-69
2023/12/14 07:20:38;;;;;;;81.30;31.45;;;;;;;7.03;100.00;100879.22;5027058;28;20591;-69
2023/12/14 07:23:03;;;;;;;84.35;33.90;;;;;;;6.99;100.00;100878.34;5024149;28;20036;-69
2023/12/14 07:25:29;;;;;;;78.25;30.00;;;;;;;6.97;100.00;100885.19;5057620;28;20071;-69
2023/12/14 07:27:54;;;;;;;78.35;30.33;;;;;;;6.96;100.00;100893.72;5024101;28;20114;-69
2023/12/14 07:30:20;;;;;;;73.90;28.08;;;;;;;6.96;100.00;100892.88;5061962;28;20045;-69
2023/12/14 07:32:45;;;;;;;81.03;31.08;;;;;;;6.95;100.00;100899.72;5062990;28;20115;-69
2023/12/14 07:35:11;;;;;;;69.40;27.10;;;;;;;6.92;100.00;100907.38;5021366;28;20033;-69
2023/12/14 07:37:36;;;;;;;69.57;28.17;;;;;;;6.90;100.00;100912.53;5024512;28;20036;-69
2023/12/14 07:40:03;;;;;;;69.57;25.98;;;;;;;6.89;100.00;100910.78;5022672;28;20037;-69
2023/12/14 07:42:28;;;;;;;64.28;24.45;;;;;;;6.85;100.00;100914.19;5027142;28;20164;-69
2023/12/14 07:44:54;;;;;;;71.20;26.88;;;;;;;6.80;100.00;100925.25;5008846;28;20120;-69
2023/12/14 07:47:20;;;;;;;65.38;25.00;;;;;;;6.78;100.00;100932.09;5026289;28;20037;-69
2023/12/14 07:49:45;;;;;;;63.88;24.60;;;;;;;6.74;100.00;100938.03;5025585;28;20029;-69
2023/12/14 07:52:13;;;;;;;76.13;26.73;;;;;;;6.75;100.00;100942.34;5024012;28;20048;-69
2023/12/14 07:54:38;;;;;;;68.30;24.75;;;;;;;6.72;100.00;100945.75;5024157;28;20378;-69
2023/12/14 07:57:04;;;;;;;77.53;27.00;;;;;;;6.70;100.00;100954.28;5022486;28;20036;-69
2023/12/14 07:59:29;;;;;;;80.40;28.85;;;;;;;6.67;100.00;100957.69;5021654;28;20124;-69
2023/12/14 08:01:55;;;;;;;86.05;28.25;;;;;;;6.67;100.00;100959.41;5024778;28;20120;-70
2023/12/14 08:04:20;;;;;;;90.82;30.17;;;;;;;6.66;100.00;100963.66;5024113;28;20553;-69
2023/12/14 08:06:46;;;;;;;96.05;31.10;;;;;;;6.64;100.00;100977.34;5054361;28;20676;-69
2023/12/14 08:09:11;;;;;;;94.15;30.42;;;;;;;6.62;100.00;100987.59;5038012;28;20038;-70
2023/12/14 08:11:37;;;;;;;102.80;28.92;;;;;;;6.60;100.00;100986.72;5058581;28;20060;-69
2023/12/14 08:14:02;;;;;;;87.63;28.58;;;;;;;6.56;100.00;100995.22;5025681;28;20485;-69
2023/12/14 08:16:28;;;;;;;90.22;27.88;;;;;;;6.52;100.00;101005.44;5023638;28;20017;-69
2023/12/14 08:18:53;;;;;;;79.85;27.17;;;;;;;6.48;100.00;101017.38;5025888;28;20045;-70
2023/12/14 08:21:19;;;;;;;85.45;27.15;;;;;;;6.44;100.00;101015.63;5023636;28;20136;-69
2023/12/14 08:23:44;;;;;;;77.55;24.95;;;;;;;6.40;100.00;101019.00;5053457;28;20043;-69
2023/12/14 08:26:12;;;;;;;79.53;25.23;;;;;;;6.39;100.00;101027.53;5019405;28;20037;-69
2023/12/14 08:28:40;;;;;;;73.22;23.60;;;;;;;6.40;100.00;101024.16;5026964;28;20038;-70
2023/12/14 08:31:06;;;;;;;72.93;25.17;;;;;;;6.44;100.00;101033.59;5051430;28;20690;-69
2023/12/14 08:33:32;;;;;;;69.28;23.25;;;;;;;6.45;100.00;101034.47;5055597;28;20042;-69
2023/12/14 08:35:57;;;;;;;67.47;23.27;;;;;;;6.44;100.00;101038.72;5024838;28;20037;-70
2023/12/14 08:38:23;;;;;;;74.97;25.17;;;;;;;6.46;100.00;101041.31;5021652;28;20107;-70
2023/12/14 08:40:49;;;;;;;74.88;24.45;;;;;;;6.48;100.00;101043.06;5027637;28;20040;-69
2023/12/14 08:43:14;;;;;;;77.60;23.23;;;;;;;6.52;100.00;101044.84;5024269;28;20400;-69
2023/12/14 08:45:40;;;;;;;66.70;21.90;;;;;;;6.53;100.00;101055.94;5023699;28;20430;-69
2023/12/14 08:48:06;;;;;;;51.97;20.58;;;;;;;6.51;100.00;101055.06;5025211;28;20034;-68
2023/12/14 08:50:31;;;;;;;57.75;19.77;;;;;;;6.50;100.00;101061.03;5025689;28;20477;-69
2023/12/14 08:52:59;;;;;;;51.47;18.23;;;;;;;6.47;100.00;101067.00;5028538;28;20053;-69
2023/12/14 08:55:26;;;;;;;53.08;20.10;;;;;;;6.50;100.00;101066.19;5032055;28;20029;-69
2023/12/14 08:57:52;;;;;;;48.10;16.90;;;;;;;6.47;100.00;101077.28;5058372;28;20034;-69
2023/12/14 09:00:18;;;;;;;51.03;17.98;;;;;;;6.48;100.00;101086.72;5027627;28;20041;-69
2023/12/14 09:02:45;;;;;;;44.88;16.98;;;;;;;6.50;100.00;101089.28;5061041;28;20048;-69
2023/12/14 09:05:14;;;;;;;43.05;16.15;;;;;;;6.49;100.00;101090.16;5061572;28;20112;-69
2023/12/14 09:07:40;;;;;;;38.78;15.52;;;;;;;6.52;100.00;101097.91;5029034;28;20034;-69
2023/12/14 09:10:06;;;;;;;38.38;16.35;;;;;;;6.54;100.00;101104.78;5032940;28;20068;-69
2023/12/14 09:12:33;;;;;;;39.38;16.13;;;;;;;6.57;100.00;101111.66;5013383;28;20512;-70
2023/12/14 09:14:59;;;;;;;35.28;15.90;;;;;;;6.56;100.00;101121.06;5030873;28;20110;-69
2023/12/14 09:17:24;;;;;;;36.35;16.77;;;;;;;6.53;100.00;101113.31;5040747;28;20444;-69
2023/12/14 09:19:50;;;;;;;38.60;16.20;;;;;;;6.54;100.00;101127.88;5030343;28;20040;-68
2023/12/14 09:22:15;;;;;;;43.00;17.02;;;;;;;6.55;100.00;101127.06;5028644;28;20103;-69
2023/12/14 09:24:40;;;;;;;41.10;16.10;;;;;;;6.56;100.00;101133.03;5043412;28;20049;-69
2023/12/14 09:27:06;;;;;;;42.88;17.65;;;;;;;6.54;100.00;101143.28;5057119;28;20025;-69
2023/12/14 09:29:31;;;;;;;41.55;16.85;;;;;;;6.55;100.00;101142.47;5029335;28;20587;-68
2023/12/14 09:31:57;;;;;;;37.08;16.05;;;;;;;6.55;100.00;101146.72;5042020;28;20057;-69
2023/12/14 09:34:22;;;;;;;40.58;16.67;;;;;;;6.54;100.00;101150.13;5030160;28;20060;-69
2023/12/14 09:36:47;;;;;;;37.63;17.15;;;;;;;6.51;100.00;101161.22;5025884;28;20040;-70
2023/12/14 09:39:15;;;;;;;38.00;15.75;;;;;;;6.48;100.00;101161.19;5027530;28;20037;-69
2023/12/14 09:41:40;;;;;;;35.65;15.40;;;;;;;6.43;100.00;101167.97;5024769;28;20076;-69
2023/12/14 09:44:09;;;;;;;41.33;16.63;;;;;;;6.41;100.00;101179.06;5026410;28;20033;-69
2023/12/14 09:46:36;;;;;;;36.88;15.70;;;;;;;6.38;100.00;101174.72;5027175;28;20055;-69
2023/12/14 09:49:04;;;;;;;44.55;18.20;;;;;;;6.40;100.00;101178.19;5022043;28;20145;-69
2023/12/14 09:51:30;;;;;;;41.30;16.98;;;;;;;6.41;100.00;101174.75;5026228;28;20901;-70
2023/12/14 09:53:58;;;;;;;39.88;17.55;;;;;;;6.40;100.00;101180.75;5026555;28;20040;-70
2023/12/14 09:56:27;;;;;;;43.10;16.73;;;;;;;6.36;100.00;101178.97;5023465;28;20060;-69
2023/12/14 09:58:53;;;;;;;39.90;16.88;;;;;;;6.33;100.00;101190.06;5009751;28;20025;-70
2023/12/14 10:01:27;;;;;;;38.97;16.30;;;;;;;6.31;100.00;101188.31;5026888;28;20037;-70
2023/12/14 10:04:14;;;;;;;38.42;17.58;;;;;;;6.29;100.00;101189.97;5056866;28;20033;-70
2023/12/14 10:06:42;;;;;;;38.75;16.80;;;;;;;6.30;100.00;101196.84;5025377;28;20574;-70
2023/12/14 10:09:09;;;;;;;39.53;16.90;;;;;;;6.28;100.00;101198.53;5028888;28;20053;-70
2023/12/14 10:11:38;;;;;;;37.28;17.13;;;;;;;6.28;100.00;101201.09;5023456;28;20087;-70
2023/12/14 10:14:22;;;;;;;40.50;16.52;;;;;;;6.31;100.00;101209.72;5024104;28;20030;-70
2023/12/14 10:16:50;;;;;;;38.72;16.15;;;;;;;6.33;100.00;101209.72;5058763;28;20116;-69
2023/12/14 10:19:17;;;;;;;36.92;16.25;;;;;;;6.26;100.00;101215.59;5024428;28;20065;-69
2023/12/14 10:21:43;;;;;;;36.20;16.63;;;;;;;6.23;100.00;101212.97;5026440;28;20044;-70
2023/12/14 10:24:08;;;;;;;37.33;15.77;;;;;;;6.25;100.00;101217.31;5026103;28;20041;-69
2023/12/14 10:26:34;;;;;;;35.25;16.35;;;;;;;6.27;100.00;101220.78;5028220;28;20057;-70
2023/12/14 10:28:59;;;;;;;39.10;16.23;;;;;;;6.30;100.00;101230.22;5024440;28;20032;-69
2023/12/14 10:31:26;;;;;;;42.95;17.35;;;;;;;6.32;100.00;101233.66;5007454;28;20072;-69
2023/12/14 10:33:52;;;;;;;38.53;17.77;;;;;;;6.34;100.00;101234.56;5042166;28;20034;-70
2023/12/14 10:36:24;;;;;;;49.38;19.55;;;;;;;6.34;100.00;101238.00;5026064;28;20036;-69
2023/12/14 10:38:53;;;;;;;39.47;17.80;;;;;;;6.38;100.00;101236.34;5021792;28;20040;-70
2023/12/14 10:41:21;;;;;;;45.85;19.48;;;;;;;6.41;100.00;101244.09;5026019;28;20045;-70
2023/12/14 10:43:48;;;;;;;39.17;18.15;;;;;;;6.48;100.00;101252.75;5028834;28;20042;-69
2023/12/14 10:46:14;;;;;;;43.15;19.55;;;;;;;6.46;100.00;101251.88;5043548;28;20737;-69
2023/12/14 10:48:44;;;;;;;46.53;18.95;;;;;;;6.45;100.00;101261.28;5025012;28;20042;-69
2023/12/14 10:51:12;;;;;;;43.42;19.73;;;;;;;6.45;100.00;101262.97;5028692;28;20495;-68
2023/12/14 10:53:38;;;;;;;42.10;18.52;;;;;;;6.44;100.00;101274.94;5029701;28;20040;-69
2023/12/14 10:56:09;;;;;;;43.13;19.08;;;;;;;6.38;100.00;101271.44;5021051;28;20509;-69
2023/12/14 10:58:46;;;;;;;34.05;17.60;;;;;;;6.37;100.00;101279.97;5065276;28;20075;-68
2023/12/14 11:01:26;;;;;;;40.53;19.30;;;;;;;6.37;100.00;101274.84;5050406;28;20041;-69
2023/12/14 11:03:59;;;;;;;38.30;17.70;;;;;;;6.36;100.00;101289.38;5028466;28;20107;-69